createdAt,value
2022-11-15T00:01:12.029Z,101467.09
2022-11-15T00:03:39.759Z,101463.44
2022-11-15T00:06:07.634Z,101455.03
2022-11-15T00:08:35.716Z,101452.28
2022-11-15T00:11:05.173Z,101455.23
2022-11-15T00:13:33.190Z,101447.84
2022-11-15T00:16:03.085Z,101457.98
2022-11-15T00:18:31.890Z,101461.27
2022-11-15T00:21:08.209Z,101466.05
2022-11-15T00:23:36.238Z,101455.91
2022-11-15T00:26:04.377Z,101453.40
2022-11-15T00:28:32.008Z,101446.46
2022-11-15T00:31:07.356Z,101453.40
2022-11-15T00:33:36.093Z,101447.70
2022-11-15T00:36:11.213Z,101457.38
2022-11-15T00:38:40.961Z,101447.15
2022-11-15T00:41:10.283Z,101445.88
2022-11-15T00:43:38.661Z,101441.79
2022-11-15T00:46:06.439Z,101444.53
2022-11-15T00:48:35.269Z,101442.48
2022-11-15T00:51:02.987Z,101439.04
2022-11-15T00:53:31.030Z,101443.48
2022-11-15T00:55:58.929Z,101443.06
2022-11-15T00:58:26.642Z,101438.02
2022-11-15T01:00:54.387Z,101431.78
2022-11-15T01:03:22.172Z,101433.58
2022-11-15T01:05:50.008Z,101422.85
2022-11-15T01:08:18.838Z,101426.62
2022-11-15T01:10:46.531Z,101426.62
2022-11-15T01:13:14.177Z,101427.89
2022-11-15T01:15:43.400Z,101435.28
2022-11-15T01:18:11.519Z,101430.02
2022-11-15T01:20:44.137Z,101425.96
2022-11-15T01:23:12.201Z,101431.75
2022-11-15T01:25:40.019Z,101422.16
2022-11-15T01:28:07.958Z,101423.09
2022-11-15T01:30:35.823Z,101409.77
2022-11-15T01:33:03.530Z,101406.57
2022-11-15T01:35:31.192Z,101405.33
2022-11-15T01:37:58.796Z,101404.18
2022-11-15T01:40:26.549Z,101402.35
2022-11-15T01:42:54.199Z,101403.63
2022-11-15T01:45:21.953Z,101406.90
2022-11-15T01:47:54.530Z,101410.92
2022-11-15T01:50:29.083Z,101391.40
2022-11-15T01:52:56.906Z,101394.60
2022-11-15T01:55:27.973Z,101392.21
2022-11-15T01:58:00.050Z,101383.19
2022-11-15T02:00:27.674Z,101363.63
2022-11-15T02:02:55.439Z,101366.80
2022-11-15T02:05:23.227Z,101376.13
2022-11-15T02:07:51.375Z,101365.89
2022-11-15T02:10:22.835Z,101365.89
2022-11-15T02:12:51.527Z,101368.84
2022-11-15T02:15:19.394Z,101363.47
2022-11-15T02:17:58.982Z,101370.11
2022-11-15T02:20:41.581Z,101358.92
2022-11-15T02:23:39.571Z,101362.69
2022-11-15T02:26:20.533Z,101365.99
2022-11-15T02:28:55.610Z,101353.92
2022-11-15T02:31:36.431Z,101351.90
2022-11-15T02:34:03.943Z,101346.86
2022-11-15T02:36:40.543Z,101335.12
2022-11-15T02:39:30.324Z,101326.13
2022-11-15T02:42:34.200Z,101340.05
2022-11-15T02:45:07.469Z,101342.90
2022-11-15T02:47:43.411Z,101328.65
2022-11-15T02:50:14.665Z,101324.55
2022-11-15T02:52:42.313Z,101340.71
2022-11-15T02:55:31.062Z,101340.71
2022-11-15T02:58:33.377Z,101332.60
2022-11-15T03:01:15.593Z,101340.94
2022-11-15T03:03:52.395Z,101339.93
2022-11-15T03:06:41.860Z,101335.35
2022-11-15T03:09:35.770Z,101336.95
2022-11-15T03:12:30.494Z,101332.37
2022-11-15T03:15:07.137Z,101322.27
2022-11-15T03:17:47.405Z,101330.25
2022-11-15T03:20:17.853Z,101329.33
2022-11-15T03:22:48.909Z,101325.21
2022-11-15T03:25:22.756Z,101313.83
2022-11-15T03:27:55.582Z,101314.65
2022-11-15T03:30:23.501Z,101304.38
2022-11-15T03:32:59.929Z,101298.10
2022-11-15T03:35:31.477Z,101308.70
2022-11-15T03:38:13.710Z,101316.45
2022-11-15T03:41:02.530Z,101310.43
2022-11-15T03:43:57.785Z,101301.90
2022-11-15T03:46:30.731Z,101301.90
2022-11-15T03:49:12.515Z,101296.30
2022-11-15T03:51:40.772Z,101308.96
2022-11-15T03:54:08.851Z,101303.23
2022-11-15T03:56:36.419Z,101303.04
2022-11-15T03:59:04.075Z,101301.87
2022-11-15T04:01:31.756Z,101304.84
2022-11-15T04:03:59.416Z,101301.30
2022-11-15T04:06:27.120Z,101303.70
2022-11-15T04:08:54.746Z,101302.09
2022-11-15T04:11:22.420Z,101299.58
2022-11-15T04:13:50.113Z,101293.46
2022-11-15T04:16:17.798Z,101286.04
2022-11-15T04:18:45.386Z,101276.59
2022-11-15T04:21:31.555Z,101283.42
2022-11-15T04:24:14.438Z,101277.14
2022-11-15T04:26:42.092Z,101279.10
2022-11-15T04:29:28.416Z,101282.83
2022-11-15T04:31:56.070Z,101271.78
2022-11-15T04:34:24.090Z,101272.47
2022-11-15T04:37:10.322Z,101284.20
2022-11-15T04:39:37.999Z,101279.34
2022-11-15T04:42:05.961Z,101273.48
2022-11-15T04:44:33.646Z,101266.88
2022-11-15T04:47:01.287Z,101264.48
2022-11-15T04:49:28.963Z,101264.03
2022-11-15T04:51:56.565Z,101273.35
2022-11-15T04:54:24.266Z,101270.08
2022-11-15T04:56:52.029Z,101265.86
2022-11-15T04:59:19.705Z,101268.22
2022-11-15T05:01:47.399Z,101266.05
2022-11-15T05:04:21.066Z,101271.65
2022-11-15T05:06:50.752Z,101266.29
2022-11-15T05:09:22.082Z,101272.89
2022-11-15T05:11:50.148Z,101271.16
2022-11-15T05:14:18.286Z,101259.91
2022-11-15T05:16:45.982Z,101270.51
2022-11-15T05:19:13.799Z,101262.88
2022-11-15T05:21:41.503Z,101269.49
2022-11-15T05:24:11.200Z,101269.13
2022-11-15T05:26:39.035Z,101266.29
2022-11-15T05:29:06.757Z,101264.03
2022-11-15T05:31:34.360Z,101255.73
2022-11-15T05:34:03.195Z,101257.42
2022-11-15T05:36:37.884Z,101258.80
2022-11-15T05:39:09.218Z,101252.78
2022-11-15T05:41:45.864Z,101250.03
2022-11-15T05:44:17.314Z,101244.93
2022-11-15T05:46:45.932Z,101252.65
2022-11-15T05:49:17.391Z,101245.03
2022-11-15T05:51:47.354Z,101241.76
2022-11-15T05:54:16.343Z,101242.55
2022-11-15T05:56:44.885Z,101236.49
2022-11-15T05:59:13.634Z,101239.24
2022-11-15T06:01:42.053Z,101236.07
2022-11-15T06:04:09.745Z,101230.22
2022-11-15T06:06:37.381Z,101234.47
2022-11-15T06:09:05.041Z,101241.86
2022-11-15T06:11:32.681Z,101242.32
2022-11-15T06:14:00.343Z,101242.91
2022-11-15T06:16:27.966Z,101247.78
2022-11-15T06:18:55.584Z,101246.30
2022-11-15T06:21:23.377Z,101241.43
2022-11-15T06:23:51.097Z,101245.03
2022-11-15T06:26:18.718Z,101249.05
2022-11-15T06:28:46.365Z,101240.95
2022-11-15T06:31:14.174Z,101239.47
2022-11-15T06:33:42.375Z,101238.10
2022-11-15T06:36:17.263Z,101242.91
2022-11-15T06:38:46.480Z,101237.22
2022-11-15T06:41:15.473Z,101237.45
2022-11-15T06:43:43.611Z,101236.17
2022-11-15T06:46:11.545Z,101236.17
2022-11-15T06:48:39.276Z,101238.42
2022-11-15T06:51:07.431Z,101247.09
2022-11-15T06:53:36.601Z,101242.88
2022-11-15T06:56:08.499Z,101233.98
2022-11-15T06:58:37.130Z,101236.13
2022-11-15T07:01:07.950Z,101241.37
2022-11-15T07:03:40.586Z,101234.11
2022-11-15T07:06:09.487Z,101231.46
2022-11-15T07:08:37.829Z,101232.80
2022-11-15T07:11:08.942Z,101234.89
2022-11-15T07:13:38.363Z,101233.32
2022-11-15T07:16:08.330Z,101236.27
2022-11-15T07:18:37.489Z,101241.66
2022-11-15T07:21:11.615Z,101234.17
2022-11-15T07:23:40.336Z,101231.59
2022-11-15T07:26:09.638Z,101234.11
2022-11-15T07:28:37.670Z,101233.45
2022-11-15T07:31:07.485Z,101229.34
2022-11-15T07:33:36.021Z,101231.88
2022-11-15T07:36:05.745Z,101220.93
2022-11-15T07:38:38.037Z,101221.39
2022-11-15T07:41:09.144Z,101225.48
2022-11-15T07:43:37.513Z,101227.24
2022-11-15T07:46:11.243Z,101231.69
2022-11-15T07:48:44.827Z,101214.36
2022-11-15T07:51:17.785Z,101227.50
2022-11-15T07:53:46.232Z,101227.50
2022-11-15T07:56:14.184Z,101228.29
2022-11-15T07:58:42.151Z,101221.45
2022-11-15T08:01:12.107Z,101221.72
2022-11-15T08:03:39.897Z,101223.09
2022-11-15T08:06:07.834Z,101221.52
2022-11-15T08:08:35.460Z,101207.72
2022-11-15T08:11:03.326Z,101210.63
2022-11-15T08:13:31.854Z,101204.58
2022-11-15T08:16:04.354Z,101215.63
2022-11-15T08:18:32.015Z,101202.52
2022-11-15T08:21:03.339Z,101207.30
2022-11-15T08:23:31.346Z,101203.17
2022-11-15T08:26:06.858Z,101205.01
2022-11-15T08:28:34.750Z,101199.64
2022-11-15T08:31:02.775Z,101200.30
2022-11-15T08:33:31.198Z,101191.08
2022-11-15T08:36:00.098Z,101196.80
2022-11-15T08:38:28.363Z,101195.39
2022-11-15T08:41:06.000Z,101200.16
2022-11-15T08:43:34.970Z,101197.65
2022-11-15T08:46:02.815Z,101196.30
2022-11-15T08:48:31.651Z,101188.10
2022-11-15T08:50:59.665Z,101184.66
2022-11-15T08:53:27.609Z,101181.23
2022-11-15T08:55:55.348Z,101171.78
2022-11-15T08:58:22.967Z,101173.13
2022-11-15T09:00:50.656Z,101166.68
2022-11-15T09:03:18.335Z,101173.22
2022-11-15T09:05:46.072Z,101171.36
2022-11-15T09:08:40.720Z,101178.81
2022-11-15T09:11:09.104Z,101173.32
2022-11-15T09:13:38.980Z,101181.27
2022-11-15T09:16:07.051Z,101179.99
2022-11-15T09:18:35.282Z,101181.79
2022-11-15T09:21:04.935Z,101184.14
2022-11-15T09:23:32.741Z,101189.70
2022-11-15T09:26:04.846Z,101178.48
2022-11-15T09:28:33.884Z,101162.04
2022-11-15T09:31:07.385Z,101171.23
2022-11-15T09:33:35.958Z,101167.43
2022-11-15T09:36:06.578Z,101171.75
2022-11-15T09:38:35.634Z,101176.98
2022-11-15T09:41:16.152Z,101174.13
2022-11-15T09:43:49.763Z,101175.09
2022-11-15T09:46:33.502Z,101175.67
2022-11-15T09:49:05.144Z,101175.67
2022-11-15T09:51:32.793Z,101176.16
2022-11-15T09:57:16.347Z,101166.02
2022-11-15T10:00:45.985Z,101158.24
2022-11-15T10:03:17.661Z,101160.14
2022-11-15T10:05:48.397Z,101159.81
2022-11-15T10:08:49.902Z,101156.02
2022-11-15T10:11:39.171Z,101147.98
2022-11-15T10:14:18.146Z,101148.11
2022-11-15T10:17:03.881Z,101148.44
2022-11-15T10:20:05.563Z,101152.39
2022-11-15T10:22:46.303Z,101150.23
2022-11-15T10:25:14.619Z,101150.89
2022-11-15T10:27:45.149Z,101146.90
2022-11-15T10:30:15.736Z,101142.13
2022-11-15T10:32:46.627Z,101137.71
2022-11-15T10:35:34.567Z,101127.70
2022-11-15T10:38:10.300Z,101125.35
2022-11-15T10:40:39.309Z,101120.12
2022-11-15T10:43:12.795Z,101118.84
2022-11-15T10:45:40.852Z,101119.46
2022-11-15T10:48:14.217Z,101125.48
2022-11-15T10:50:44.653Z,101115.80
2022-11-15T10:53:25.255Z,101111.84
2022-11-15T10:55:57.582Z,101113.12
2022-11-15T10:58:51.973Z,101119.76
2022-11-15T11:01:23.914Z,101122.63
2022-11-15T11:04:02.482Z,101109.16
2022-11-15T11:06:30.717Z,101101.87
2022-11-15T11:09:02.369Z,101100.43
2022-11-15T11:12:07.123Z,101095.20
2022-11-15T11:14:38.288Z,101091.86
2022-11-15T11:17:34.894Z,101092.32
2022-11-15T11:20:26.377Z,101092.02
2022-11-15T11:23:18.366Z,101093.17
2022-11-15T11:26:20.641Z,101093.34
2022-11-15T11:28:58.347Z,101082.22
2022-11-15T11:31:31.617Z,101081.10
2022-11-15T11:34:10.591Z,101088.07
2022-11-15T11:36:53.156Z,101084.96
2022-11-15T11:39:46.371Z,101079.57
2022-11-15T11:42:32.327Z,101080.19
2022-11-15T11:45:11.894Z,101074.80
2022-11-15T11:47:44.410Z,101074.66
2022-11-15T11:50:25.360Z,101074.04
2022-11-15T11:53:03.934Z,101064.98
2022-11-15T11:55:40.675Z,101064.23
2022-11-15T11:58:35.330Z,101060.57
2022-11-15T12:01:37.478Z,101052.46
2022-11-15T12:04:31.400Z,101060.73
2022-11-15T12:07:05.582Z,101054.84
2022-11-15T12:09:40.136Z,101065.02
2022-11-15T12:12:26.264Z,101050.73
2022-11-15T12:15:04.550Z,101057.37
2022-11-15T12:17:34.194Z,101051.64
2022-11-15T12:20:05.659Z,101045.88
2022-11-15T12:23:05.114Z,101043.83
2022-11-15T12:25:42.110Z,101028.10
2022-11-15T12:28:19.983Z,101035.03
2022-11-15T12:31:12.117Z,101029.80
2022-11-15T12:33:44.068Z,101015.93
2022-11-15T12:36:31.559Z,101021.27
2022-11-15T12:39:00.732Z,101019.83
2022-11-15T12:41:56.911Z,101016.78
2022-11-15T12:44:33.784Z,101013.58
2022-11-15T12:47:25.388Z,101004.72
2022-11-15T12:49:53.970Z,100991.80
2022-11-15T12:52:21.939Z,100976.98
2022-11-15T12:54:55.606Z,100971.88
2022-11-15T12:57:29.138Z,100975.65
2022-11-15T13:00:04.674Z,100962.44
2022-11-15T13:02:36.994Z,100963.55
2022-11-15T13:05:20.374Z,100961.45
2022-11-15T13:07:50.846Z,100965.74
2022-11-15T13:10:18.353Z,100955.86
2022-11-15T13:12:45.923Z,100958.05
2022-11-15T13:15:13.550Z,100951.35
2022-11-15T13:17:54.328Z,100946.74
2022-11-15T13:20:25.208Z,100930.69
2022-11-15T13:23:15.675Z,100930.69
2022-11-15T13:25:55.128Z,100928.40
2022-11-15T13:28:51.664Z,100921.73
2022-11-15T13:31:45.177Z,100918.09
2022-11-15T13:34:51.554Z,100921.95
2022-11-15T13:37:22.868Z,100909.89
2022-11-15T13:39:51.531Z,100912.44
2022-11-15T13:42:21.088Z,100907.70
2022-11-15T13:45:03.553Z,100897.52
2022-11-15T13:47:31.992Z,100890.43
2022-11-15T13:50:01.172Z,100901.87
2022-11-15T13:52:33.935Z,100899.78
2022-11-15T13:55:15.775Z,100892.95
2022-11-15T13:57:53.608Z,100895.53
2022-11-15T14:00:29.577Z,100887.45
2022-11-15T14:02:59.005Z,100887.45
2022-11-15T14:05:27.147Z,100882.38
2022-11-15T14:08:06.377Z,100872.70
2022-11-15T14:10:38.183Z,100872.70
2022-11-15T14:13:12.420Z,100860.97
2022-11-15T14:15:41.996Z,100858.61
2022-11-15T14:18:49.762Z,100856.52
2022-11-15T14:21:18.090Z,100859.07
2022-11-15T14:23:46.215Z,100848.94
2022-11-15T14:26:29.215Z,100851.16
2022-11-15T14:28:56.955Z,100841.51
2022-11-15T14:31:25.076Z,100841.22
2022-11-15T14:33:52.738Z,100837.36
2022-11-15T14:36:22.441Z,100833.40
2022-11-15T14:38:50.319Z,100832.62
2022-11-15T14:41:17.983Z,100830.23
2022-11-15T14:43:45.735Z,100818.49
2022-11-15T14:46:13.382Z,100820.26
2022-11-15T14:48:41.037Z,100821.04
2022-11-15T14:51:27.970Z,100826.47
2022-11-15T14:53:57.396Z,100829.02
2022-11-15T14:56:25.136Z,100822.22
2022-11-15T14:58:52.768Z,100822.71
2022-11-15T15:01:28.105Z,100822.38
2022-11-15T15:03:59.075Z,100818.75
2022-11-15T15:06:27.106Z,100814.30
2022-11-15T15:08:54.846Z,100807.80
2022-11-15T15:11:28.671Z,100804.16
2022-11-15T15:13:59.065Z,100788.57
2022-11-15T15:16:27.153Z,100791.16
2022-11-15T15:18:55.280Z,100786.02
2022-11-15T15:21:25.846Z,100781.87
2022-11-15T15:23:56.115Z,100774.38
2022-11-15T15:26:25.429Z,100776.27
2022-11-15T15:28:53.670Z,100766.40
2022-11-15T15:31:21.353Z,100764.63
2022-11-15T15:33:49.108Z,100761.79
2022-11-15T15:36:20.090Z,100764.44
2022-11-15T15:38:48.785Z,100768.39
2022-11-15T15:41:17.863Z,100761.40
2022-11-15T15:43:46.151Z,100762.97
2022-11-15T15:46:16.986Z,100758.84
2022-11-15T15:48:45.537Z,100756.46
2022-11-15T15:51:19.809Z,100755.18
2022-11-15T15:53:49.171Z,100749.76
2022-11-15T15:56:16.793Z,100742.27
2022-11-15T15:58:44.573Z,100732.09
2022-11-15T16:01:12.322Z,100721.93
2022-11-15T16:03:39.952Z,100716.50
2022-11-15T16:06:36.465Z,100709.20
2022-11-15T16:09:15.020Z,100703.48
2022-11-15T16:11:45.701Z,100694.13
2022-11-15T16:14:13.669Z,100695.99
2022-11-15T16:16:41.337Z,100686.94
2022-11-15T16:19:13.090Z,100683.57
2022-11-15T16:21:40.699Z,100675.49
2022-11-15T16:24:08.407Z,100672.62
2022-11-15T16:26:37.647Z,100674.48
2022-11-15T16:29:05.278Z,100665.09
2022-11-15T16:31:32.951Z,100659.37
2022-11-15T16:34:00.732Z,100663.52
2022-11-15T16:36:31.008Z,100660.68
2022-11-15T16:38:59.304Z,100659.37
2022-11-15T16:41:27.273Z,100657.05
2022-11-15T16:43:54.979Z,100671.34
2022-11-15T16:46:25.074Z,100669.25
2022-11-15T16:48:54.913Z,100660.38
2022-11-15T16:51:23.510Z,100656.23
2022-11-15T16:53:51.603Z,100648.94
2022-11-15T16:56:32.300Z,100641.16
2022-11-15T16:59:01.709Z,100644.79
2022-11-15T17:01:32.862Z,100632.55
2022-11-15T17:04:00.851Z,100629.19
2022-11-15T17:06:28.537Z,100621.90
2022-11-15T17:08:56.210Z,100627.91
2022-11-15T17:11:24.122Z,100622.98
2022-11-15T17:13:51.877Z,100621.90
2022-11-15T17:16:19.931Z,100625.46
2022-11-15T17:18:52.469Z,100629.81
2022-11-15T17:21:23.659Z,100632.06
2022-11-15T17:23:51.368Z,100621.80
2022-11-15T17:26:39.171Z,100624.38
2022-11-15T17:29:09.122Z,100622.52
2022-11-15T17:31:37.583Z,100611.56
2022-11-15T17:34:07.071Z,100599.82
2022-11-15T17:36:35.438Z,100596.16
2022-11-15T17:39:04.162Z,100590.96
2022-11-15T17:41:32.145Z,100582.85
2022-11-15T17:44:01.113Z,100576.84
2022-11-15T17:46:29.740Z,100565.88
2022-11-15T17:48:58.548Z,100572.62
2022-11-15T17:51:26.333Z,100568.46
2022-11-15T17:53:54.432Z,100567.48
2022-11-15T17:56:24.361Z,100572.23
2022-11-15T17:58:54.149Z,100570.43
2022-11-15T18:01:23.085Z,100557.70
2022-11-15T18:03:51.715Z,100565.33
2022-11-15T18:06:21.466Z,100563.52
2022-11-15T18:08:51.242Z,100554.44
2022-11-15T18:11:22.993Z,100550.31
2022-11-15T18:13:53.331Z,100554.73
2022-11-15T18:16:23.422Z,100543.02
2022-11-15T18:18:51.058Z,100547.96
2022-11-15T18:21:24.164Z,100539.85
2022-11-15T18:23:55.597Z,100544.98
2022-11-15T18:26:27.833Z,100540.54
2022-11-15T18:29:04.028Z,100542.34
2022-11-15T18:31:32.821Z,100534.36
2022-11-15T18:34:01.566Z,100542.14
2022-11-15T18:36:31.039Z,100536.91
2022-11-15T18:39:01.669Z,100529.35
2022-11-15T18:41:30.569Z,100522.52
2022-11-15T18:43:59.576Z,100526.15
2022-11-15T18:46:30.785Z,100526.48
2022-11-15T18:49:01.319Z,100518.86
2022-11-15T18:51:31.579Z,100515.23
2022-11-15T18:54:01.668Z,100510.20
2022-11-15T18:56:31.314Z,100509.64
2022-11-15T18:59:01.262Z,100509.90
2022-11-15T19:01:37.413Z,100500.05
2022-11-15T19:04:18.560Z,100495.61
2022-11-15T19:06:50.126Z,100491.75
2022-11-15T19:09:20.238Z,100489.23
2022-11-15T19:11:49.819Z,100480.57
2022-11-15T19:14:18.992Z,100474.32
2022-11-15T19:16:56.199Z,100473.05
2022-11-15T19:19:26.675Z,100468.11
2022-11-15T19:21:54.726Z,100460.23
2022-11-15T19:24:22.455Z,100462.02
2022-11-15T19:26:50.168Z,100466.67
2022-11-15T19:29:19.309Z,100460.85
2022-11-15T19:31:48.916Z,100458.66
2022-11-15T19:34:16.760Z,100458.88
2022-11-15T19:36:45.565Z,100455.91
2022-11-15T19:39:15.360Z,100444.99
2022-11-15T19:41:44.746Z,100440.84
2022-11-15T19:44:13.900Z,100443.52
2022-11-15T19:46:41.879Z,100440.15
2022-11-15T19:49:11.728Z,100434.95
2022-11-15T19:51:40.071Z,100432.37
2022-11-15T19:54:09.807Z,100433.64
2022-11-15T19:56:38.533Z,100436.98
2022-11-15T19:59:06.588Z,100433.34
2022-11-15T20:01:40.166Z,100431.19
2022-11-15T20:04:09.067Z,100423.90
2022-11-15T20:06:40.501Z,100422.13
2022-11-15T20:09:08.668Z,100409.80
2022-11-15T20:11:38.961Z,100412.75
2022-11-15T20:14:08.986Z,100394.56
2022-11-15T20:16:36.690Z,100396.63
2022-11-15T20:19:04.489Z,100389.14
2022-11-15T20:21:32.216Z,100393.26
2022-11-15T20:23:59.980Z,100388.62
2022-11-15T20:26:27.878Z,100385.09
2022-11-15T20:29:02.103Z,100376.32
2022-11-15T20:31:30.839Z,100368.80
2022-11-15T20:33:58.649Z,100361.60
2022-11-15T20:36:26.335Z,100355.95
2022-11-15T20:38:58.272Z,100356.77
2022-11-15T20:41:26.604Z,100348.98
2022-11-15T20:43:54.275Z,100341.66
2022-11-15T20:46:22.268Z,100348.20
2022-11-15T20:48:49.969Z,100348.88
2022-11-15T20:51:19.874Z,100339.53
2022-11-15T20:53:48.771Z,100340.61
2022-11-15T20:56:21.618Z,100336.75
2022-11-15T20:58:51.373Z,100338.62
2022-11-15T21:01:24.634Z,100333.55
2022-11-15T21:03:57.093Z,100340.02
2022-11-15T21:06:26.271Z,100343.39
2022-11-15T21:09:13.189Z,100335.31
2022-11-15T21:11:59.936Z,100331.88
2022-11-15T21:14:27.703Z,100331.29
2022-11-15T21:16:55.350Z,100324.98
2022-11-15T21:19:28.094Z,100323.15
2022-11-15T21:22:00.504Z,100322.23
2022-11-15T21:24:28.503Z,100326.68
2022-11-15T21:26:56.930Z,100329.03
2022-11-15T21:29:25.446Z,100326.38
2022-11-15T21:31:54.680Z,100320.66
2022-11-15T21:34:22.546Z,100319.59
2022-11-15T21:36:50.175Z,100316.64
2022-11-15T21:39:17.750Z,100312.23
2022-11-15T21:41:45.397Z,100323.34
2022-11-15T21:44:13.061Z,100329.07
2022-11-15T21:46:40.833Z,100317.66
2022-11-15T21:49:08.678Z,100339.20
2022-11-15T21:51:36.486Z,100346.70
2022-11-15T21:54:04.193Z,100343.81
2022-11-15T21:56:32.243Z,100351.30
2022-11-15T21:59:00.317Z,100339.11
2022-11-15T22:01:47.422Z,100347.97
2022-11-15T22:04:15.739Z,100348.75
2022-11-15T22:06:43.382Z,100351.63
2022-11-15T22:09:11.092Z,100348.75
2022-11-15T22:11:38.817Z,100340.77
2022-11-15T22:14:06.494Z,100343.42
2022-11-15T22:16:34.405Z,100337.99
2022-11-15T22:19:02.243Z,100338.81
2022-11-15T22:21:30.119Z,100349.05
2022-11-15T22:23:57.816Z,100352.97
2022-11-15T22:26:25.548Z,100349.90
2022-11-15T22:28:53.604Z,100339.86
2022-11-15T22:31:21.413Z,100343.78
2022-11-15T22:33:49.145Z,100332.17
2022-11-15T22:36:16.872Z,100329.59
2022-11-15T22:38:44.563Z,100327.01
2022-11-15T22:41:12.257Z,100326.52
2022-11-15T22:43:40.012Z,100330.15
2022-11-15T22:46:07.826Z,100330.67
2022-11-15T22:48:38.572Z,100336.69
2022-11-15T22:51:07.812Z,100332.73
2022-11-15T22:53:35.643Z,100338.26
2022-11-15T22:56:05.281Z,100338.26
2022-11-15T22:58:34.362Z,100333.55
2022-11-15T23:01:04.841Z,100329.88
2022-11-15T23:03:34.045Z,100325.44
2022-11-15T23:06:03.697Z,100330.67
2022-11-15T23:08:31.489Z,100337.38
2022-11-15T23:11:21.978Z,100330.60
2022-11-15T23:13:52.954Z,100326.94
2022-11-15T23:16:24.213Z,100326.65
2022-11-15T23:18:58.087Z,100334.13
2022-11-15T23:21:56.689Z,100341.43
2022-11-15T23:24:25.152Z,100336.03
2022-11-15T23:26:56.241Z,100338.55
2022-11-15T23:29:26.133Z,100336.23
2022-11-15T23:32:13.440Z,100339.27
2022-11-15T23:34:43.937Z,100331.20
2022-11-15T23:37:14.366Z,100331.91
2022-11-15T23:39:42.158Z,100341.43
2022-11-15T23:42:09.930Z,100337.54
2022-11-15T23:44:38.055Z,100340.67
2022-11-15T23:47:06.122Z,100336.52
2022-11-15T23:49:33.821Z,100345.87
2022-11-15T23:52:01.530Z,100346.95
2022-11-15T23:54:29.255Z,100346.20
2022-11-15T23:56:56.923Z,100352.19
2022-11-15T23:59:24.578Z,100350.91
